createdAt,value
2022-10-21T00:00:30.835Z,11.38
2022-10-21T00:05:32.536Z,10.68
2022-10-21T00:10:34.369Z,11.52
2022-10-21T00:15:36.544Z,10.25
2022-10-21T00:20:41.234Z,9.80
2022-10-21T00:25:42.920Z,10.23
2022-10-21T00:30:45.899Z,9.55
2022-10-21T00:35:55.316Z,10.57
2022-10-21T00:40:57.041Z,10.93
2022-10-21T00:46:05.103Z,9.40
2022-10-21T00:51:12.724Z,8.90
2022-10-21T00:56:24.337Z,9.20
2022-10-21T01:01:26.188Z,9.85
2022-10-21T01:06:28.801Z,9.25
2022-10-21T01:11:33.144Z,10.93
2022-10-21T01:17:01.612Z,9.73
2022-10-21T01:22:40.889Z,9.23
2022-10-21T01:28:07.079Z,9.48
2022-10-21T01:33:38.736Z,9.45
2022-10-21T01:39:02.102Z,8.02
2022-10-21T01:44:16.121Z,9.18
2022-10-21T01:49:30.091Z,8.82
2022-10-21T01:54:42.717Z,10.23
2022-10-21T01:59:45.573Z,9.82
2022-10-21T02:04:50.676Z,9.15
2022-10-21T02:09:52.345Z,8.48
2022-10-21T02:14:55.376Z,7.97
2022-10-21T02:20:00.888Z,9.27
2022-10-21T02:25:10.148Z,9.02
2022-10-21T02:30:12.479Z,7.97
2022-10-21T02:35:22.973Z,8.15
2022-10-21T02:40:35.520Z,9.83
2022-10-21T02:45:38.640Z,11.60
2022-10-21T02:50:40.395Z,9.02
2022-10-21T02:55:42.153Z,8.95
2022-10-21T03:00:43.870Z,8.07
2022-10-21T03:05:46.071Z,10.05
2022-10-21T03:10:53.530Z,8.98
2022-10-21T03:15:55.690Z,9.32
2022-10-21T03:20:57.372Z,7.97
2022-10-21T03:25:59.011Z,11.32
2022-10-21T03:31:00.731Z,10.63
2022-10-21T03:36:02.476Z,10.13
2022-10-21T03:41:04.209Z,9.05
2022-10-21T03:46:06.376Z,9.07
2022-10-21T03:51:08.065Z,9.55
2022-10-21T03:56:09.746Z,8.10
2022-10-21T04:01:13.313Z,8.43
2022-10-21T04:06:14.995Z,8.27
2022-10-21T04:11:16.717Z,9.07
2022-10-21T04:16:20.584Z,8.48
2022-10-21T04:26:25.002Z,7.47
2022-10-21T04:31:31.273Z,7.90
2022-10-21T04:36:33.830Z,13.73
2022-10-21T04:41:35.983Z,9.43
2022-10-21T04:46:38.130Z,9.65
2022-10-21T04:51:39.798Z,8.63
2022-10-21T04:56:41.975Z,9.18
2022-10-21T05:01:44.033Z,9.00
2022-10-21T05:06:45.687Z,11.23
2022-10-21T05:11:47.371Z,9.02
2022-10-21T05:16:49.458Z,9.52
2022-10-21T05:21:51.157Z,10.07
2022-10-21T05:26:52.905Z,9.98
2022-10-21T05:31:54.973Z,11.20
2022-10-21T05:36:56.647Z,10.40
2022-10-21T05:41:58.323Z,10.45
2022-10-21T05:46:59.994Z,11.13
2022-10-21T05:52:02.432Z,9.93
2022-10-21T05:57:04.150Z,10.15
2022-10-21T06:02:06.102Z,9.90
2022-10-21T06:07:08.374Z,11.10
2022-10-21T06:12:10.341Z,12.35
2022-10-21T06:17:12.845Z,34.63
2022-10-21T06:22:15.212Z,36.70
2022-10-21T06:27:17.427Z,24.48
2022-10-21T06:32:19.608Z,18.58
2022-10-21T06:37:24.770Z,12.25
2022-10-21T06:42:29.605Z,13.38
2022-10-21T06:47:31.301Z,15.30
2022-10-21T06:52:33.664Z,14.50
2022-10-21T06:57:35.827Z,14.57
2022-10-21T07:02:38.061Z,14.60
2022-10-21T07:07:40.303Z,13.75
2022-10-21T07:12:42.587Z,15.02
2022-10-21T07:17:44.323Z,11.20
2022-10-21T07:22:46.022Z,12.30
2022-10-21T07:27:49.066Z,8.82
2022-10-21T07:32:51.165Z,12.52
2022-10-21T07:37:53.266Z,21.63
2022-10-21T07:42:56.582Z,17.73
2022-10-21T07:47:58.356Z,9.60
2022-10-21T07:53:10.232Z,11.95
2022-10-21T07:58:14.323Z,13.43
2022-10-21T08:03:15.995Z,13.25
2022-10-21T08:08:17.783Z,13.20
2022-10-21T08:13:20.647Z,11.80
2022-10-21T08:18:23.191Z,10.23
2022-10-21T08:23:26.422Z,10.15
2022-10-21T08:28:29.812Z,8.30
2022-10-21T08:33:32.164Z,5.30
2022-10-21T08:38:34.448Z,6.90
2022-10-21T08:43:38.920Z,5.15
2022-10-21T08:48:47.646Z,3.20
2022-10-21T08:53:53.547Z,4.85
2022-10-21T08:58:55.306Z,3.40
2022-10-21T09:04:00.086Z,3.78
2022-10-21T09:09:11.317Z,3.42
2022-10-21T09:19:42.597Z,10.43
2022-10-21T09:24:52.538Z,9.98
2022-10-21T09:30:00.711Z,10.13
2022-10-21T09:35:24.103Z,6.78
2022-10-21T09:40:28.946Z,6.50
2022-10-21T09:45:40.731Z,4.22
2022-10-21T09:50:43.036Z,3.83
2022-10-21T09:55:47.619Z,3.85
2022-10-21T10:00:50.418Z,5.18
2022-10-21T10:05:52.163Z,2.70
2022-10-21T10:11:10.955Z,3.13
2022-10-21T10:16:28.146Z,3.78
2022-10-21T10:21:29.779Z,3.50
2022-10-21T10:26:42.633Z,4.22
2022-10-21T10:31:50.997Z,2.67
2022-10-21T10:37:05.795Z,2.83
2022-10-21T10:42:08.115Z,1.73
2022-10-21T10:47:20.981Z,2.20
2022-10-21T10:52:24.439Z,2.28
2022-10-21T10:57:39.037Z,2.17
2022-10-21T11:03:04.432Z,2.97
2022-10-21T11:08:17.517Z,4.35
2022-10-21T11:13:24.081Z,3.20
2022-10-21T11:19:10.746Z,3.22
2022-10-21T11:24:42.793Z,3.45
2022-10-21T11:29:47.545Z,3.03
2022-10-21T11:34:58.400Z,2.88
2022-10-21T11:40:31.204Z,3.17
2022-10-21T11:51:06.057Z,2.50
2022-10-21T11:56:19.384Z,3.00
2022-10-21T12:01:46.749Z,2.40
2022-10-21T12:07:00.649Z,3.17
2022-10-21T12:12:22.814Z,2.58
2022-10-21T12:17:25.393Z,4.15
2022-10-21T12:22:29.899Z,2.83
2022-10-21T12:28:06.590Z,2.17
2022-10-21T12:33:39.002Z,1.95
2022-10-21T12:38:54.926Z,1.63
2022-10-21T12:44:03.008Z,1.75
2022-10-21T12:49:30.594Z,3.38
2022-10-21T12:54:39.699Z,2.58
2022-10-21T12:59:43.202Z,1.60
2022-10-21T13:04:47.670Z,1.70
2022-10-21T13:09:52.402Z,1.80
2022-10-21T13:14:57.196Z,1.88
2022-10-21T13:20:17.953Z,1.48
2022-10-21T13:25:24.238Z,1.50
2022-10-21T13:30:29.430Z,1.75
2022-10-21T13:35:43.607Z,1.90
2022-10-21T13:41:10.409Z,2.05
2022-10-21T13:46:27.159Z,2.15
2022-10-21T13:51:31.645Z,2.08
2022-10-21T13:56:36.031Z,1.25
2022-10-21T14:01:46.510Z,2.85
2022-10-21T14:06:58.222Z,2.05
2022-10-21T14:12:06.412Z,1.20
2022-10-21T14:17:19.542Z,1.40
2022-10-21T14:22:25.445Z,1.63
2022-10-21T14:27:29.963Z,1.30
2022-10-21T14:32:32.231Z,1.00
2022-10-21T14:37:44.221Z,1.40
2022-10-21T14:42:49.760Z,0.85
2022-10-21T14:48:10.333Z,1.63
2022-10-21T14:53:23.568Z,1.25
2022-10-21T14:58:32.329Z,0.70
2022-10-21T15:03:42.957Z,0.88
2022-10-21T15:09:01.214Z,1.00
2022-10-21T15:14:26.157Z,1.30
2022-10-21T15:19:43.933Z,2.75
2022-10-21T15:24:46.783Z,2.00
2022-10-21T15:29:48.814Z,5.68
2022-10-21T15:34:52.060Z,2.35
2022-10-21T15:39:53.714Z,1.83
2022-10-21T15:44:55.406Z,1.83
2022-10-21T15:49:57.664Z,2.33
2022-10-21T15:54:59.390Z,1.42
2022-10-21T16:00:01.316Z,2.33
2022-10-21T16:05:03.462Z,1.35
2022-10-21T16:10:21.005Z,1.10
2022-10-21T16:15:24.010Z,1.20
2022-10-21T16:20:27.122Z,1.25
2022-10-21T16:25:28.819Z,1.98
2022-10-21T16:30:36.363Z,19.25
2022-10-21T16:35:38.464Z,3.65
2022-10-21T16:40:40.133Z,4.03
2022-10-21T16:45:43.401Z,5.03
2022-10-21T16:50:46.405Z,2.25
2022-10-21T16:55:48.438Z,2.45
2022-10-21T17:00:50.427Z,2.80
2022-10-21T17:05:52.524Z,11.73
2022-10-21T17:10:54.212Z,6.70
2022-10-21T17:15:55.882Z,3.08
2022-10-21T17:20:57.602Z,5.95
2022-10-21T17:25:59.385Z,2.10
2022-10-21T17:31:01.051Z,8.55
2022-10-21T17:36:02.749Z,4.28
2022-10-21T17:41:04.523Z,4.72
2022-10-21T17:46:06.600Z,9.25
2022-10-21T17:51:09.663Z,7.15
2022-10-21T17:56:12.002Z,6.65
2022-10-21T18:01:13.993Z,12.32
2022-10-21T18:06:16.180Z,15.90
2022-10-21T18:11:20.263Z,9.63
2022-10-21T18:16:22.752Z,4.68
2022-10-21T18:21:24.922Z,6.00
2022-10-21T18:26:29.031Z,11.40
2022-10-21T18:31:33.757Z,7.97
2022-10-21T18:36:35.465Z,4.30
2022-10-21T18:41:38.544Z,6.50
2022-10-21T18:46:42.064Z,4.75
2022-10-21T18:51:43.887Z,2.55
2022-10-21T18:56:45.686Z,7.95
2022-10-21T19:01:47.465Z,3.88
2022-10-21T19:06:49.165Z,24.50
2022-10-21T19:11:50.886Z,19.00
2022-10-21T19:16:52.977Z,13.10
2022-10-21T19:21:54.810Z,14.70
2022-10-21T19:26:58.598Z,11.90
2022-10-21T19:32:00.280Z,10.52
2022-10-21T19:37:01.993Z,16.80
2022-10-21T19:42:03.899Z,8.32
2022-10-21T19:47:05.641Z,9.02
2022-10-21T19:52:07.347Z,7.45
2022-10-21T19:57:09.460Z,10.13
2022-10-21T20:02:11.636Z,10.15
2022-10-21T20:07:13.327Z,7.18
2022-10-21T20:12:15.564Z,8.98
2022-10-21T20:17:18.422Z,9.93
2022-10-21T20:22:20.245Z,7.63
2022-10-21T20:27:21.936Z,9.70
2022-10-21T20:32:24.384Z,8.63
2022-10-21T20:37:26.085Z,8.85
2022-10-21T20:42:27.703Z,5.88
2022-10-21T20:47:30.936Z,3.90
2022-10-21T20:52:32.694Z,3.30
2022-10-21T20:57:36.978Z,3.90
2022-10-21T21:02:39.340Z,2.58
2022-10-21T21:07:41.476Z,4.13
2022-10-21T21:12:43.435Z,3.83
2022-10-21T21:17:48.466Z,3.38
2022-10-21T21:22:50.343Z,3.20
2022-10-21T21:27:52.010Z,2.88
2022-10-21T21:32:53.695Z,3.40
2022-10-21T21:37:55.366Z,2.65
2022-10-21T21:42:57.032Z,2.13
2022-10-21T21:47:58.791Z,2.22
2022-10-21T21:53:00.893Z,2.35
2022-10-21T21:58:03.051Z,2.25
2022-10-21T22:03:05.575Z,6.55
2022-10-21T22:08:07.650Z,5.63
2022-10-21T22:13:09.491Z,8.10
2022-10-21T22:18:11.131Z,5.05
2022-10-21T22:23:13.255Z,11.05
2022-10-21T22:28:15.374Z,7.30
2022-10-21T22:33:17.076Z,8.00
2022-10-21T22:38:19.158Z,8.02
2022-10-21T22:43:21.623Z,7.53
2022-10-21T22:48:23.462Z,4.50
2022-10-21T22:53:25.154Z,4.72
2022-10-21T22:58:26.808Z,2.90
2022-10-21T23:03:28.488Z,1.77
2022-10-21T23:08:30.198Z,1.80
2022-10-21T23:13:31.895Z,1.40
2022-10-21T23:18:33.776Z,1.15
2022-10-21T23:23:36.010Z,1.58
2022-10-21T23:28:37.820Z,1.10
2022-10-21T23:33:39.530Z,1.13
2022-10-21T23:38:41.291Z,0.98
2022-10-21T23:43:43.402Z,1.63
2022-10-21T23:48:45.450Z,1.00
2022-10-21T23:53:47.299Z,1.52
2022-10-21T23:58:48.978Z,0.90
